sensor_id;sensor_type;location;lat;lon;timestamp;P1;durP1;ratioP1;P2;durP2;ratioP2
65853;SDS011;52627;48.838;2.402;2024-01-15T00:02:00;25.30;;;13.50;;
65853;SDS011;52627;48.838;2.402;2024-01-15T00:07:58;27.10;;;14.30;;
65853;SDS011;52627;48.838;2.402;2024-01-15T00:11:11;26.70;;;14.40;;
65853;SDS011;52627;48.838;2.402;2024-01-15T00:14:46;28.20;;;14.00;;
65853;SDS011;52627;48.838;2.402;2024-01-15T00:29:39;26.70;;;14.60;;
65853;SDS011;52627;48.838;2.402;2024-01-15T00:49:10;25.50;;;12.90;;
65853;SDS011;52627;48.838;2.402;2024-01-15T00:52:46;25.20;;;13.70;;
65853;SDS011;52627;48.838;2.402;2024-01-15T00:55:36;23.00;;;13.00;;
65853;SDS011;52627;48.838;2.402;2024-01-15T00:58:37;25.30;;;13.50;;
65853;SDS011;52627;48.838;2.402;2024-01-15T01:01:05;23.60;;;12.90;;
65853;SDS011;52627;48.838;2.402;2024-01-15T01:03:33;22.00;;;11.90;;
65853;SDS011;52627;48.838;2.402;2024-01-15T01:06:00;25.60;;;14.00;;
65853;SDS011;52627;48.838;2.402;2024-01-15T01:08:28;24.80;;;13.50;;
65853;SDS011;52627;48.838;2.402;2024-01-15T01:10:56;23.90;;;12.70;;
65853;SDS011;52627;48.838;2.402;2024-01-15T01:13:24;26.50;;;13.70;;
65853;SDS011;52627;48.838;2.402;2024-01-15T01:15:51;25.70;;;15.30;;
65853;SDS011;52627;48.838;2.402;2024-01-15T01:18:19;24.80;;;13.50;;
65853;SDS011;52627;48.838;2.402;2024-01-15T01:20:47;24.80;;;13.40;;
65853;SDS011;52627;48.838;2.402;2024-01-15T01:23:15;25.00;;;13.60;;
65853;SDS011;52627;48.838;2.402;2024-01-15T01:25:43;23.40;;;13.70;;
65853;SDS011;52627;48.838;2.402;2024-01-15T01:28:11;25.40;;;13.20;;
65853;SDS011;52627;48.838;2.402;2024-01-15T01:30:38;25.50;;;13.60;;
65853;SDS011;52627;48.838;2.402;2024-01-15T01:33:07;25.30;;;13.30;;
65853;SDS011;52627;48.838;2.402;2024-01-15T01:35:40;24.10;;;12.30;;
65853;SDS011;52627;48.838;2.402;2024-01-15T01:38:45;24.20;;;12.60;;
65853;SDS011;52627;48.838;2.402;2024-01-15T01:41:56;23.60;;;12.30;;
65853;SDS011;52627;48.838;2.402;2024-01-15T01:44:52;22.70;;;12.30;;
65853;SDS011;52627;48.838;2.402;2024-01-15T01:50:28;21.40;;;12.20;;
65853;SDS011;52627;48.838;2.402;2024-01-15T01:53:08;23.90;;;12.70;;
65853;SDS011;52627;48.838;2.402;2024-01-15T01:55:48;26.50;;;14.40;;
65853;SDS011;52627;48.838;2.402;2024-01-15T01:58:29;23.40;;;12.70;;
65853;SDS011;52627;48.838;2.402;2024-01-15T02:02:03;22.90;;;11.90;;
65853;SDS011;52627;48.838;2.402;2024-01-15T02:05:02;22.30;;;12.10;;
65853;SDS011;52627;48.838;2.402;2024-01-15T02:08:08;21.50;;;12.30;;
65853;SDS011;52627;48.838;2.402;2024-01-15T02:10:36;25.00;;;13.20;;
65853;SDS011;52627;48.838;2.402;2024-01-15T02:13:03;23.30;;;13.00;;
65853;SDS011;52627;48.838;2.402;2024-01-15T02:15:31;23.70;;;12.50;;
65853;SDS011;52627;48.838;2.402;2024-01-15T02:18:00;22.30;;;12.00;;
65853;SDS011;52627;48.838;2.402;2024-01-15T02:20:31;24.80;;;13.80;;
65853;SDS011;52627;48.838;2.402;2024-01-15T02:23:13;21.50;;;12.00;;
65853;SDS011;52627;48.838;2.402;2024-01-15T02:25:46;23.20;;;12.40;;
65853;SDS011;52627;48.838;2.402;2024-01-15T02:28:16;24.10;;;12.30;;
65853;SDS011;52627;48.838;2.402;2024-01-15T02:33:15;22.70;;;13.00;;
65853;SDS011;52627;48.838;2.402;2024-01-15T02:35:46;24.80;;;13.20;;
65853;SDS011;52627;48.838;2.402;2024-01-15T02:38:16;24.50;;;12.70;;
65853;SDS011;52627;48.838;2.402;2024-01-15T02:41:28;21.70;;;11.80;;
65853;SDS011;52627;48.838;2.402;2024-01-15T02:44:41;24.10;;;13.60;;
65853;SDS011;52627;48.838;2.402;2024-01-15T02:50:28;24.50;;;12.60;;
65853;SDS011;52627;48.838;2.402;2024-01-15T02:52:57;23.60;;;13.00;;
65853;SDS011;52627;48.838;2.402;2024-01-15T03:04:30;21.20;;;11.50;;
65853;SDS011;52627;48.838;2.402;2024-01-15T03:07:01;23.60;;;11.60;;
65853;SDS011;52627;48.838;2.402;2024-01-15T03:09:33;23.50;;;11.10;;
65853;SDS011;52627;48.838;2.402;2024-01-15T03:12:27;22.50;;;12.20;;
65853;SDS011;52627;48.838;2.402;2024-01-15T03:15:01;21.20;;;11.60;;
65853;SDS011;52627;48.838;2.402;2024-01-15T03:17:30;19.60;;;10.40;;
65853;SDS011;52627;48.838;2.402;2024-01-15T03:19:57;22.70;;;11.80;;
65853;SDS011;52627;48.838;2.402;2024-01-15T03:22:26;22.80;;;12.10;;
65853;SDS011;52627;48.838;2.402;2024-01-15T03:25:19;22.40;;;12.30;;
65853;SDS011;52627;48.838;2.402;2024-01-15T03:28:24;23.20;;;11.90;;
65853;SDS011;52627;48.838;2.402;2024-01-15T03:30:52;24.00;;;12.30;;
65853;SDS011;52627;48.838;2.402;2024-01-15T03:33:20;20.60;;;11.30;;
65853;SDS011;52627;48.838;2.402;2024-01-15T03:35:48;21.30;;;11.60;;
65853;SDS011;52627;48.838;2.402;2024-01-15T03:38:15;20.30;;;11.00;;
65853;SDS011;52627;48.838;2.402;2024-01-15T03:57:26;18.30;;;10.60;;
65853;SDS011;52627;48.838;2.402;2024-01-15T04:05:23;19.50;;;10.10;;
65853;SDS011;52627;48.838;2.402;2024-01-15T04:08:06;20.60;;;11.20;;
65853;SDS011;52627;48.838;2.402;2024-01-15T04:10:35;19.40;;;9.80;;
65853;SDS011;52627;48.838;2.402;2024-01-15T04:13:15;18.40;;;10.00;;
65853;SDS011;52627;48.838;2.402;2024-01-15T04:20:08;17.70;;;8.80;;
65853;SDS011;52627;48.838;2.402;2024-01-15T04:31:53;16.30;;;9.60;;
65853;SDS011;52627;48.838;2.402;2024-01-15T04:34:29;19.10;;;10.40;;
65853;SDS011;52627;48.838;2.402;2024-01-15T04:37:36;16.90;;;9.30;;
65853;SDS011;52627;48.838;2.402;2024-01-15T05:02:25;16.70;;;9.20;;
65853;SDS011;52627;48.838;2.402;2024-01-15T05:14:27;16.60;;;8.90;;
65853;SDS011;52627;48.838;2.402;2024-01-15T05:25:24;17.20;;;8.40;;
65853;SDS011;52627;48.838;2.402;2024-01-15T05:28:54;17.40;;;9.50;;
65853;SDS011;52627;48.838;2.402;2024-01-15T05:31:35;16.10;;;8.90;;
65853;SDS011;52627;48.838;2.402;2024-01-15T05:34:03;21.20;;;10.20;;
65853;SDS011;52627;48.838;2.402;2024-01-15T05:36:41;19.80;;;9.90;;
65853;SDS011;52627;48.838;2.402;2024-01-15T05:39:35;15.90;;;9.20;;
65853;SDS011;52627;48.838;2.402;2024-01-15T05:42:05;18.00;;;9.00;;
65853;SDS011;52627;48.838;2.402;2024-01-15T05:44:53;17.80;;;10.20;;
65853;SDS011;52627;48.838;2.402;2024-01-15T05:47:29;18.70;;;9.50;;
65853;SDS011;52627;48.838;2.402;2024-01-15T05:50:03;18.60;;;9.00;;
65853;SDS011;52627;48.838;2.402;2024-01-15T05:52:38;18.90;;;9.10;;
65853;SDS011;52627;48.838;2.402;2024-01-15T06:04:16;15.40;;;8.80;;
65853;SDS011;52627;48.838;2.402;2024-01-15T06:54:08;20.60;;;10.20;;
65853;SDS011;52627;48.838;2.402;2024-01-15T06:57:11;18.60;;;8.40;;
65853;SDS011;52627;48.838;2.402;2024-01-15T07:22:16;16.90;;;8.10;;
65853;SDS011;52627;48.838;2.402;2024-01-15T07:25:09;14.80;;;7.90;;
65853;SDS011;52627;48.838;2.402;2024-01-15T07:27:46;17.00;;;9.20;;
65853;SDS011;52627;48.838;2.402;2024-01-15T07:30:28;15.40;;;8.30;;
65853;SDS011;52627;48.838;2.402;2024-01-15T07:33:20;17.50;;;9.10;;
65853;SDS011;52627;48.838;2.402;2024-01-15T07:35:47;16.40;;;7.90;;
65853;SDS011;52627;48.838;2.402;2024-01-15T07:38:23;17.90;;;9.40;;
65853;SDS011;52627;48.838;2.402;2024-01-15T07:40:54;16.90;;;8.90;;
65853;SDS011;52627;48.838;2.402;2024-01-15T07:43:21;14.90;;;8.50;;
65853;SDS011;52627;48.838;2.402;2024-01-15T07:46:08;18.30;;;9.10;;
65853;SDS011;52627;48.838;2.402;2024-01-15T07:48:35;16.20;;;8.70;;
65853;SDS011;52627;48.838;2.402;2024-01-15T07:51:04;19.90;;;9.10;;
65853;SDS011;52627;48.838;2.402;2024-01-15T07:53:35;17.20;;;9.10;;
65853;SDS011;52627;48.838;2.402;2024-01-15T07:56:02;18.80;;;9.10;;
65853;SDS011;52627;48.838;2.402;2024-01-15T07:58:29;16.10;;;8.50;;
65853;SDS011;52627;48.838;2.402;2024-01-15T08:00:56;19.70;;;9.60;;
65853;SDS011;52627;48.838;2.402;2024-01-15T08:03:23;16.30;;;8.70;;
65853;SDS011;52627;48.838;2.402;2024-01-15T08:05:50;15.70;;;8.60;;
65853;SDS011;52627;48.838;2.402;2024-01-15T08:08:19;15.40;;;8.30;;
65853;SDS011;52627;48.838;2.402;2024-01-15T08:10:53;17.30;;;8.80;;
65853;SDS011;52627;48.838;2.402;2024-01-15T08:13:20;18.60;;;10.00;;
65853;SDS011;52627;48.838;2.402;2024-01-15T08:15:50;19.30;;;9.20;;
65853;SDS011;52627;48.838;2.402;2024-01-15T08:30:58;18.20;;;8.90;;
65853;SDS011;52627;48.838;2.402;2024-01-15T08:34:17;18.10;;;8.40;;
65853;SDS011;52627;48.838;2.402;2024-01-15T08:36:44;19.40;;;9.30;;
65853;SDS011;52627;48.838;2.402;2024-01-15T08:39:10;16.60;;;8.40;;
65853;SDS011;52627;48.838;2.402;2024-01-15T08:41:37;19.80;;;9.50;;
65853;SDS011;52627;48.838;2.402;2024-01-15T08:44:04;15.70;;;8.00;;
65853;SDS011;52627;48.838;2.402;2024-01-15T08:46:31;16.30;;;8.70;;
65853;SDS011;52627;48.838;2.402;2024-01-15T08:48:58;16.90;;;8.40;;
65853;SDS011;52627;48.838;2.402;2024-01-15T08:51:25;20.40;;;8.90;;
65853;SDS011;52627;48.838;2.402;2024-01-15T08:53:52;16.90;;;8.60;;
65853;SDS011;52627;48.838;2.402;2024-01-15T08:56:19;19.10;;;9.60;;
65853;SDS011;52627;48.838;2.402;2024-01-15T08:58:45;18.00;;;8.40;;
65853;SDS011;52627;48.838;2.402;2024-01-15T09:01:12;16.70;;;8.00;;
65853;SDS011;52627;48.838;2.402;2024-01-15T09:03:40;17.30;;;8.80;;
65853;SDS011;52627;48.838;2.402;2024-01-15T09:06:10;16.20;;;8.60;;
65853;SDS011;52627;48.838;2.402;2024-01-15T09:08:37;17.10;;;8.30;;
65853;SDS011;52627;48.838;2.402;2024-01-15T09:11:04;17.30;;;8.20;;
65853;SDS011;52627;48.838;2.402;2024-01-15T09:13:31;17.00;;;8.40;;
65853;SDS011;52627;48.838;2.402;2024-01-15T09:15:58;13.70;;;8.10;;
65853;SDS011;52627;48.838;2.402;2024-01-15T09:18:26;16.40;;;8.00;;
65853;SDS011;52627;48.838;2.402;2024-01-15T09:20:53;13.80;;;7.60;;
65853;SDS011;52627;48.838;2.402;2024-01-15T09:23:20;13.70;;;7.50;;
65853;SDS011;52627;48.838;2.402;2024-01-15T09:25:47;13.90;;;6.90;;
65853;SDS011;52627;48.838;2.402;2024-01-15T09:28:15;13.60;;;7.30;;
65853;SDS011;52627;48.838;2.402;2024-01-15T09:30:42;14.30;;;7.20;;
65853;SDS011;52627;48.838;2.402;2024-01-15T09:33:09;15.40;;;7.80;;
65853;SDS011;52627;48.838;2.402;2024-01-15T09:35:36;15.20;;;8.40;;
65853;SDS011;52627;48.838;2.402;2024-01-15T09:38:03;14.80;;;8.00;;
65853;SDS011;52627;48.838;2.402;2024-01-15T09:40:31;12.90;;;6.70;;
65853;SDS011;52627;48.838;2.402;2024-01-15T09:43:01;10.70;;;6.20;;
65853;SDS011;52627;48.838;2.402;2024-01-15T09:45:29;14.00;;;7.20;;
65853;SDS011;52627;48.838;2.402;2024-01-15T09:47:56;11.90;;;6.50;;
65853;SDS011;52627;48.838;2.402;2024-01-15T09:50:23;13.30;;;6.10;;
65853;SDS011;52627;48.838;2.402;2024-01-15T09:52:50;13.00;;;6.40;;
65853;SDS011;52627;48.838;2.402;2024-01-15T09:55:17;13.20;;;6.10;;
65853;SDS011;52627;48.838;2.402;2024-01-15T09:57:44;8.90;;;5.10;;
65853;SDS011;52627;48.838;2.402;2024-01-15T10:00:17;9.80;;;5.20;;
65853;SDS011;52627;48.838;2.402;2024-01-15T10:02:45;11.70;;;6.40;;
65853;SDS011;52627;48.838;2.402;2024-01-15T10:05:12;9.50;;;5.60;;
65853;SDS011;52627;48.838;2.402;2024-01-15T10:07:39;12.10;;;5.40;;
65853;SDS011;52627;48.838;2.402;2024-01-15T10:10:07;12.10;;;6.40;;
65853;SDS011;52627;48.838;2.402;2024-01-15T10:12:35;10.10;;;5.80;;
65853;SDS011;52627;48.838;2.402;2024-01-15T10:15:03;11.90;;;6.30;;
65853;SDS011;52627;48.838;2.402;2024-01-15T10:17:30;10.10;;;5.50;;
65853;SDS011;52627;48.838;2.402;2024-01-15T10:19:57;12.70;;;5.40;;
65853;SDS011;52627;48.838;2.402;2024-01-15T10:22:25;9.60;;;4.60;;
65853;SDS011;52627;48.838;2.402;2024-01-15T10:24:52;10.60;;;4.90;;
65853;SDS011;52627;48.838;2.402;2024-01-15T10:27:19;8.10;;;4.20;;
65853;SDS011;52627;48.838;2.402;2024-01-15T10:29:46;9.30;;;4.60;;
65853;SDS011;52627;48.838;2.402;2024-01-15T10:32:13;8.30;;;3.70;;
65853;SDS011;52627;48.838;2.402;2024-01-15T10:34:40;10.80;;;4.90;;
65853;SDS011;52627;48.838;2.402;2024-01-15T10:37:09;8.60;;;4.10;;
65853;SDS011;52627;48.838;2.402;2024-01-15T10:39:37;8.50;;;4.60;;
65853;SDS011;52627;48.838;2.402;2024-01-15T10:42:05;10.40;;;4.40;;
65853;SDS011;52627;48.838;2.402;2024-01-15T10:44:32;7.60;;;3.90;;
65853;SDS011;52627;48.838;2.402;2024-01-15T10:47:00;8.10;;;4.00;;
65853;SDS011;52627;48.838;2.402;2024-01-15T10:49:27;10.80;;;3.60;;
65853;SDS011;52627;48.838;2.402;2024-01-15T10:52:03;6.70;;;2.70;;
65853;SDS011;52627;48.838;2.402;2024-01-15T10:54:31;8.60;;;3.70;;
65853;SDS011;52627;48.838;2.402;2024-01-15T10:56:59;8.70;;;3.60;;
65853;SDS011;52627;48.838;2.402;2024-01-15T10:59:27;6.00;;;2.60;;
65853;SDS011;52627;48.838;2.402;2024-01-15T11:01:53;7.50;;;3.10;;
65853;SDS011;52627;48.838;2.402;2024-01-15T11:04:23;7.60;;;2.90;;
65853;SDS011;52627;48.838;2.402;2024-01-15T11:06:54;6.60;;;3.30;;
65853;SDS011;52627;48.838;2.402;2024-01-15T11:09:23;6.10;;;2.90;;
65853;SDS011;52627;48.838;2.402;2024-01-15T11:12:06;6.30;;;2.80;;
65853;SDS011;52627;48.838;2.402;2024-01-15T11:14:42;6.10;;;2.90;;
65853;SDS011;52627;48.838;2.402;2024-01-15T11:17:12;8.00;;;3.30;;
65853;SDS011;52627;48.838;2.402;2024-01-15T11:25:05;6.30;;;2.10;;
65853;SDS011;52627;48.838;2.402;2024-01-15T11:27:44;4.60;;;2.10;;
65853;SDS011;52627;48.838;2.402;2024-01-15T11:30:19;5.50;;;1.90;;
65853;SDS011;52627;48.838;2.402;2024-01-15T11:32:46;5.40;;;2.00;;
65853;SDS011;52627;48.838;2.402;2024-01-15T11:35:14;4.10;;;1.80;;
65853;SDS011;52627;48.838;2.402;2024-01-15T11:40:18;6.20;;;2.30;;
65853;SDS011;52627;48.838;2.402;2024-01-15T11:42:46;9.30;;;2.00;;
65853;SDS011;52627;48.838;2.402;2024-01-15T11:45:19;4.30;;;2.10;;
65853;SDS011;52627;48.838;2.402;2024-01-15T11:48:08;7.30;;;1.80;;
65853;SDS011;52627;48.838;2.402;2024-01-15T11:50:47;4.40;;;1.60;;
65853;SDS011;52627;48.838;2.402;2024-01-15T11:53:33;5.20;;;1.90;;
65853;SDS011;52627;48.838;2.402;2024-01-15T11:56:06;6.30;;;1.80;;
65853;SDS011;52627;48.838;2.402;2024-01-15T11:58:40;5.20;;;2.10;;
65853;SDS011;52627;48.838;2.402;2024-01-15T12:01:07;5.30;;;1.90;;
65853;SDS011;52627;48.838;2.402;2024-01-15T12:03:34;4.80;;;1.80;;
65853;SDS011;52627;48.838;2.402;2024-01-15T12:06:01;4.20;;;1.60;;
65853;SDS011;52627;48.838;2.402;2024-01-15T12:08:28;4.30;;;1.80;;
65853;SDS011;52627;48.838;2.402;2024-01-15T12:10:55;5.60;;;2.50;;
65853;SDS011;52627;48.838;2.402;2024-01-15T12:13:23;4.20;;;1.60;;
65853;SDS011;52627;48.838;2.402;2024-01-15T12:15:50;7.20;;;1.70;;
65853;SDS011;52627;48.838;2.402;2024-01-15T12:18:18;5.60;;;1.90;;
65853;SDS011;52627;48.838;2.402;2024-01-15T12:20:46;4.20;;;1.50;;
65853;SDS011;52627;48.838;2.402;2024-01-15T12:23:13;4.70;;;1.60;;
65853;SDS011;52627;48.838;2.402;2024-01-15T12:25:41;4.50;;;1.30;;
65853;SDS011;52627;48.838;2.402;2024-01-15T12:28:08;4.30;;;1.50;;
65853;SDS011;52627;48.838;2.402;2024-01-15T12:30:35;4.00;;;1.30;;
65853;SDS011;52627;48.838;2.402;2024-01-15T12:33:04;3.80;;;1.40;;
65853;SDS011;52627;48.838;2.402;2024-01-15T12:35:33;3.80;;;1.60;;
65853;SDS011;52627;48.838;2.402;2024-01-15T12:38:01;3.90;;;1.50;;
65853;SDS011;52627;48.838;2.402;2024-01-15T12:40:29;4.70;;;1.30;;
65853;SDS011;52627;48.838;2.402;2024-01-15T12:42:56;5.50;;;1.60;;
65853;SDS011;52627;48.838;2.402;2024-01-15T12:45:23;3.80;;;1.30;;
65853;SDS011;52627;48.838;2.402;2024-01-15T12:47:50;4.10;;;1.40;;
65853;SDS011;52627;48.838;2.402;2024-01-15T12:50:18;6.10;;;1.90;;
65853;SDS011;52627;48.838;2.402;2024-01-15T12:52:47;5.00;;;1.60;;
65853;SDS011;52627;48.838;2.402;2024-01-15T12:55:14;5.00;;;1.60;;
65853;SDS011;52627;48.838;2.402;2024-01-15T12:57:42;5.60;;;1.70;;
65853;SDS011;52627;48.838;2.402;2024-01-15T13:00:10;4.00;;;1.40;;
65853;SDS011;52627;48.838;2.402;2024-01-15T13:02:45;4.80;;;1.60;;
65853;SDS011;52627;48.838;2.402;2024-01-15T13:05:12;4.00;;;1.30;;
65853;SDS011;52627;48.838;2.402;2024-01-15T13:07:42;4.10;;;1.20;;
65853;SDS011;52627;48.838;2.402;2024-01-15T13:10:09;3.50;;;1.20;;
65853;SDS011;52627;48.838;2.402;2024-01-15T13:12:37;5.30;;;1.40;;
65853;SDS011;52627;48.838;2.402;2024-01-15T13:15:04;6.70;;;1.60;;
65853;SDS011;52627;48.838;2.402;2024-01-15T13:17:31;3.40;;;1.20;;
65853;SDS011;52627;48.838;2.402;2024-01-15T13:19:58;4.70;;;1.30;;
65853;SDS011;52627;48.838;2.402;2024-01-15T13:22:26;3.80;;;1.20;;
65853;SDS011;52627;48.838;2.402;2024-01-15T13:24:58;3.10;;;1.10;;
65853;SDS011;52627;48.838;2.402;2024-01-15T13:27:26;3.40;;;1.10;;
65853;SDS011;52627;48.838;2.402;2024-01-15T13:29:53;2.50;;;1.00;;
65853;SDS011;52627;48.838;2.402;2024-01-15T13:32:27;2.80;;;1.00;;
65853;SDS011;52627;48.838;2.402;2024-01-15T13:34:59;3.50;;;1.00;;
65853;SDS011;52627;48.838;2.402;2024-01-15T13:37:26;3.90;;;1.10;;
65853;SDS011;52627;48.838;2.402;2024-01-15T13:39:53;3.90;;;1.10;;
65853;SDS011;52627;48.838;2.402;2024-01-15T13:42:21;2.80;;;1.30;;
65853;SDS011;52627;48.838;2.402;2024-01-15T13:44:51;5.30;;;1.20;;
65853;SDS011;52627;48.838;2.402;2024-01-15T13:47:18;3.20;;;1.10;;
65853;SDS011;52627;48.838;2.402;2024-01-15T13:49:45;3.40;;;1.30;;
65853;SDS011;52627;48.838;2.402;2024-01-15T13:52:12;3.70;;;1.30;;
65853;SDS011;52627;48.838;2.402;2024-01-15T13:54:39;4.80;;;1.20;;
65853;SDS011;52627;48.838;2.402;2024-01-15T13:57:17;3.20;;;1.30;;
65853;SDS011;52627;48.838;2.402;2024-01-15T13:59:46;4.30;;;1.20;;
65853;SDS011;52627;48.838;2.402;2024-01-15T14:02:13;3.50;;;1.60;;
65853;SDS011;52627;48.838;2.402;2024-01-15T14:04:47;3.60;;;1.20;;
65853;SDS011;52627;48.838;2.402;2024-01-15T14:07:16;3.20;;;1.00;;
65853;SDS011;52627;48.838;2.402;2024-01-15T14:09:43;3.50;;;1.10;;
65853;SDS011;52627;48.838;2.402;2024-01-15T14:12:10;3.10;;;1.00;;
65853;SDS011;52627;48.838;2.402;2024-01-15T14:14:38;3.50;;;1.00;;
65853;SDS011;52627;48.838;2.402;2024-01-15T14:17:04;3.10;;;1.00;;
65853;SDS011;52627;48.838;2.402;2024-01-15T14:19:32;5.40;;;1.30;;
65853;SDS011;52627;48.838;2.402;2024-01-15T14:21:59;2.60;;;0.90;;
65853;SDS011;52627;48.838;2.402;2024-01-15T14:24:26;2.90;;;1.10;;
65853;SDS011;52627;48.838;2.402;2024-01-15T14:26:53;6.60;;;1.20;;
65853;SDS011;52627;48.838;2.402;2024-01-15T14:29:20;3.90;;;0.90;;
65853;SDS011;52627;48.838;2.402;2024-01-15T14:31:49;2.90;;;1.10;;
65853;SDS011;52627;48.838;2.402;2024-01-15T14:34:15;3.10;;;1.00;;
65853;SDS011;52627;48.838;2.402;2024-01-15T14:36:44;4.30;;;2.00;;
65853;SDS011;52627;48.838;2.402;2024-01-15T14:39:12;6.20;;;1.10;;
65853;SDS011;52627;48.838;2.402;2024-01-15T14:41:39;5.60;;;1.50;;
65853;SDS011;52627;48.838;2.402;2024-01-15T14:44:06;5.10;;;1.90;;
65853;SDS011;52627;48.838;2.402;2024-01-15T14:46:33;4.20;;;1.30;;
65853;SDS011;52627;48.838;2.402;2024-01-15T14:48:59;5.90;;;1.50;;
65853;SDS011;52627;48.838;2.402;2024-01-15T14:51:26;4.00;;;1.50;;
65853;SDS011;52627;48.838;2.402;2024-01-15T14:53:53;3.60;;;1.20;;
65853;SDS011;52627;48.838;2.402;2024-01-15T14:56:21;2.70;;;0.90;;
65853;SDS011;52627;48.838;2.402;2024-01-15T14:58:48;4.30;;;1.10;;
65853;SDS011;52627;48.838;2.402;2024-01-15T15:01:15;3.60;;;1.10;;
65853;SDS011;52627;48.838;2.402;2024-01-15T15:03:42;2.80;;;0.90;;
65853;SDS011;52627;48.838;2.402;2024-01-15T15:06:11;3.90;;;1.10;;
65853;SDS011;52627;48.838;2.402;2024-01-15T15:08:39;3.50;;;0.90;;
65853;SDS011;52627;48.838;2.402;2024-01-15T15:11:06;3.80;;;1.20;;
65853;SDS011;52627;48.838;2.402;2024-01-15T15:13:33;4.10;;;0.80;;
65853;SDS011;52627;48.838;2.402;2024-01-15T15:16:12;4.40;;;0.80;;
65853;SDS011;52627;48.838;2.402;2024-01-15T15:18:40;5.10;;;0.90;;
65853;SDS011;52627;48.838;2.402;2024-01-15T15:21:09;3.50;;;0.80;;
65853;SDS011;52627;48.838;2.402;2024-01-15T15:23:37;2.30;;;0.80;;
65853;SDS011;52627;48.838;2.402;2024-01-15T15:26:07;2.90;;;0.90;;
65853;SDS011;52627;48.838;2.402;2024-01-15T15:28:34;4.40;;;1.30;;
65853;SDS011;52627;48.838;2.402;2024-01-15T15:31:03;3.10;;;1.00;;
65853;SDS011;52627;48.838;2.402;2024-01-15T15:33:31;4.20;;;1.30;;
65853;SDS011;52627;48.838;2.402;2024-01-15T15:35:58;5.20;;;1.30;;
65853;SDS011;52627;48.838;2.402;2024-01-15T15:38:25;3.60;;;1.20;;
65853;SDS011;52627;48.838;2.402;2024-01-15T15:40:53;4.20;;;1.30;;
65853;SDS011;52627;48.838;2.402;2024-01-15T15:43:22;5.30;;;1.10;;
65853;SDS011;52627;48.838;2.402;2024-01-15T15:45:49;4.60;;;1.20;;
65853;SDS011;52627;48.838;2.402;2024-01-15T15:48:16;3.50;;;1.20;;
65853;SDS011;52627;48.838;2.402;2024-01-15T15:50:43;4.80;;;1.00;;
65853;SDS011;52627;48.838;2.402;2024-01-15T15:53:09;2.80;;;0.80;;
65853;SDS011;52627;48.838;2.402;2024-01-15T15:55:37;3.00;;;0.80;;
65853;SDS011;52627;48.838;2.402;2024-01-15T15:58:05;3.20;;;1.00;;
65853;SDS011;52627;48.838;2.402;2024-01-15T16:00:32;2.90;;;1.00;;
65853;SDS011;52627;48.838;2.402;2024-01-15T16:02:59;3.60;;;0.90;;
65853;SDS011;52627;48.838;2.402;2024-01-15T16:05:26;3.00;;;1.10;;
65853;SDS011;52627;48.838;2.402;2024-01-15T16:08:08;4.70;;;1.10;;
65853;SDS011;52627;48.838;2.402;2024-01-15T16:10:38;2.20;;;0.80;;
65853;SDS011;52627;48.838;2.402;2024-01-15T16:13:04;6.60;;;1.20;;
65853;SDS011;52627;48.838;2.402;2024-01-15T16:15:32;3.60;;;1.00;;
65853;SDS011;52627;48.838;2.402;2024-01-15T16:17:59;2.80;;;1.00;;
65853;SDS011;52627;48.838;2.402;2024-01-15T16:20:47;3.80;;;1.10;;
65853;SDS011;52627;48.838;2.402;2024-01-15T16:23:43;2.90;;;1.00;;
65853;SDS011;52627;48.838;2.402;2024-01-15T16:26:33;2.90;;;0.90;;
65853;SDS011;52627;48.838;2.402;2024-01-15T16:29:27;2.80;;;0.70;;
65853;SDS011;52627;48.838;2.402;2024-01-15T16:31:54;2.60;;;1.00;;
65853;SDS011;52627;48.838;2.402;2024-01-15T16:34:22;3.20;;;0.90;;
65853;SDS011;52627;48.838;2.402;2024-01-15T16:36:49;3.20;;;1.10;;
65853;SDS011;52627;48.838;2.402;2024-01-15T16:39:16;5.00;;;1.70;;
65853;SDS011;52627;48.838;2.402;2024-01-15T16:41:43;3.30;;;1.30;;
65853;SDS011;52627;48.838;2.402;2024-01-15T16:45:02;3.30;;;1.20;;
65853;SDS011;52627;48.838;2.402;2024-01-15T16:49:05;4.20;;;1.10;;
65853;SDS011;52627;48.838;2.402;2024-01-15T16:52:04;3.70;;;1.10;;
65853;SDS011;52627;48.838;2.402;2024-01-15T16:58:15;3.70;;;1.20;;
65853;SDS011;52627;48.838;2.402;2024-01-15T17:01:12;3.00;;;1.00;;
65853;SDS011;52627;48.838;2.402;2024-01-15T17:04:17;4.70;;;1.80;;
65853;SDS011;52627;48.838;2.402;2024-01-15T17:06:51;4.50;;;1.30;;
65853;SDS011;52627;48.838;2.402;2024-01-15T17:13:16;4.20;;;1.20;;
65853;SDS011;52627;48.838;2.402;2024-01-15T17:16:18;2.40;;;1.00;;
65853;SDS011;52627;48.838;2.402;2024-01-15T17:18:57;3.40;;;1.30;;
65853;SDS011;52627;48.838;2.402;2024-01-15T17:21:31;3.20;;;0.90;;
65853;SDS011;52627;48.838;2.402;2024-01-15T17:24:04;3.30;;;1.20;;
65853;SDS011;52627;48.838;2.402;2024-01-15T17:26:35;4.30;;;1.30;;
65853;SDS011;52627;48.838;2.402;2024-01-15T17:29:02;4.30;;;1.60;;
65853;SDS011;52627;48.838;2.402;2024-01-15T17:31:44;3.00;;;1.20;;
65853;SDS011;52627;48.838;2.402;2024-01-15T17:34:43;3.70;;;1.20;;
65853;SDS011;52627;48.838;2.402;2024-01-15T17:37:27;4.00;;;1.40;;
65853;SDS011;52627;48.838;2.402;2024-01-15T17:40:00;3.30;;;1.20;;
65853;SDS011;52627;48.838;2.402;2024-01-15T17:42:40;5.90;;;1.30;;
65853;SDS011;52627;48.838;2.402;2024-01-15T17:45:18;5.40;;;1.50;;
65853;SDS011;52627;48.838;2.402;2024-01-15T17:47:45;3.10;;;1.30;;
65853;SDS011;52627;48.838;2.402;2024-01-15T17:50:13;2.90;;;1.20;;
65853;SDS011;52627;48.838;2.402;2024-01-15T17:52:49;3.50;;;1.30;;
65853;SDS011;52627;48.838;2.402;2024-01-15T17:55:19;4.90;;;1.60;;
65853;SDS011;52627;48.838;2.402;2024-01-15T17:57:47;3.80;;;1.50;;
65853;SDS011;52627;48.838;2.402;2024-01-15T18:00:15;6.30;;;1.40;;
65853;SDS011;52627;48.838;2.402;2024-01-15T18:02:44;3.90;;;1.50;;
65853;SDS011;52627;48.838;2.402;2024-01-15T18:05:11;4.60;;;1.60;;
65853;SDS011;52627;48.838;2.402;2024-01-15T18:07:52;3.90;;;1.40;;
65853;SDS011;52627;48.838;2.402;2024-01-15T18:10:25;4.50;;;1.50;;
65853;SDS011;52627;48.838;2.402;2024-01-15T18:12:55;4.90;;;1.50;;
65853;SDS011;52627;48.838;2.402;2024-01-15T18:15:22;3.90;;;1.70;;
65853;SDS011;52627;48.838;2.402;2024-01-15T18:17:49;3.20;;;1.60;;
65853;SDS011;52627;48.838;2.402;2024-01-15T18:20:19;5.00;;;1.70;;
65853;SDS011;52627;48.838;2.402;2024-01-15T18:22:46;4.10;;;1.40;;
65853;SDS011;52627;48.838;2.402;2024-01-15T18:25:41;5.30;;;1.90;;
65853;SDS011;52627;48.838;2.402;2024-01-15T18:28:19;3.50;;;1.40;;
65853;SDS011;52627;48.838;2.402;2024-01-15T18:30:54;4.50;;;1.60;;
65853;SDS011;52627;48.838;2.402;2024-01-15T18:33:35;5.40;;;1.50;;
65853;SDS011;52627;48.838;2.402;2024-01-15T18:36:32;5.00;;;1.70;;
65853;SDS011;52627;48.838;2.402;2024-01-15T18:39:56;5.60;;;2.20;;
65853;SDS011;52627;48.838;2.402;2024-01-15T18:43:24;6.30;;;1.70;;
65853;SDS011;52627;48.838;2.402;2024-01-15T18:46:49;4.20;;;1.50;;
65853;SDS011;52627;48.838;2.402;2024-01-15T18:54:20;6.60;;;2.20;;
65853;SDS011;52627;48.838;2.402;2024-01-15T18:58:23;6.10;;;2.20;;
65853;SDS011;52627;48.838;2.402;2024-01-15T19:09:58;5.60;;;1.80;;
65853;SDS011;52627;48.838;2.402;2024-01-15T19:17:41;5.20;;;1.70;;
65853;SDS011;52627;48.838;2.402;2024-01-15T19:21:57;6.20;;;1.80;;
65853;SDS011;52627;48.838;2.402;2024-01-15T19:33:50;7.00;;;2.40;;
65853;SDS011;52627;48.838;2.402;2024-01-15T19:36:37;6.50;;;2.60;;
65853;SDS011;52627;48.838;2.402;2024-01-15T19:40:26;8.10;;;3.00;;
65853;SDS011;52627;48.838;2.402;2024-01-15T19:43:46;7.00;;;2.60;;
65853;SDS011;52627;48.838;2.402;2024-01-15T19:47:33;6.60;;;3.30;;